Waukau, Wisconsin
Current Conditions -  °F | °C
As of 10:53 PM on Sunday 21 Dec 2014 (Local Time) from KOSH Reporting Station
Haze Haze  
Wind Chill: 26°   Ceiling: 1800
Heat Index: 35°   Visibility: 6mi
Dew Point: 29°   Wind: 13mph
Humidity: 78%   Direction: 170°S
Pressure: 29.96"   Gusts: NA
Location:  43.99°N, 88.77°W
Report Text: KOSH 220453Z 17011KT 6SM HZ OVC018 02/M02 A2996 RMK AO2 SLP157 T00171017
Loading
Personal Weather Stations






























Interactive Weather Map New forecast layout! Learn more

10-Day Weather Forecast

Advertisements
Track Severe Weather on mobile